sensor_id;sensor_type;location;lat;lon;timestamp;pressure;altitude;pressure_sealevel;temperature;humidity
33953;BME280;20231;42.710;23.280;2022-12-11T00:01:50;92923.63;;;13.84;77.24
33953;BME280;20231;42.710;23.280;2022-12-11T00:04:15;92901.66;;;13.84;77.10
33953;BME280;20231;42.710;23.280;2022-12-11T00:06:42;92876.31;;;13.67;76.92
33953;BME280;20231;42.710;23.280;2022-12-11T00:09:08;92914.22;;;13.87;77.10
33953;BME280;20231;42.710;23.280;2022-12-11T00:11:34;92885.19;;;13.75;77.06
33953;BME280;20231;42.710;23.280;2022-12-11T00:13:59;92867.97;;;13.84;76.92
33953;BME280;20231;42.710;23.280;2022-12-11T00:16:25;92846.63;;;13.77;77.00
33953;BME280;20231;42.710;23.280;2022-12-11T00:18:50;92967.94;;;13.84;77.32
33953;BME280;20231;42.710;23.280;2022-12-11T00:21:16;92867.16;;;13.46;78.26
33953;BME280;20231;42.710;23.280;2022-12-11T00:23:41;92962.97;;;13.48;78.52
33953;BME280;20231;42.710;23.280;2022-12-11T00:26:09;92889.66;;;13.21;79.07
33953;BME280;20231;42.710;23.280;2022-12-11T00:28:36;92861.50;;;12.98;79.19
33953;BME280;20231;42.710;23.280;2022-12-11T00:31:07;92896.59;;;12.80;80.73
33953;BME280;20231;42.710;23.280;2022-12-11T00:33:33;92893.34;;;13.01;80.32
33953;BME280;20231;42.710;23.280;2022-12-11T00:35:58;92872.78;;;13.10;79.63
33953;BME280;20231;42.710;23.280;2022-12-11T00:38:24;92915.38;;;13.36;79.46
33953;BME280;20231;42.710;23.280;2022-12-11T00:40:49;92833.88;;;13.30;79.57
33953;BME280;20231;42.710;23.280;2022-12-11T00:43:15;92848.31;;;13.32;79.35
33953;BME280;20231;42.710;23.280;2022-12-11T00:45:42;92890.22;;;13.46;79.00
33953;BME280;20231;42.710;23.280;2022-12-11T00:48:09;92882.91;;;13.24;79.90
33953;BME280;20231;42.710;23.280;2022-12-11T00:50:36;92853.19;;;13.15;79.82
33953;BME280;20231;42.710;23.280;2022-12-11T00:53:03;92887.41;;;13.54;78.89
33953;BME280;20231;42.710;23.280;2022-12-11T00:55:29;92921.50;;;13.55;78.52
33953;BME280;20231;42.710;23.280;2022-12-11T00:57:55;92851.44;;;13.72;78.11
33953;BME280;20231;42.710;23.280;2022-12-11T01:00:21;92859.22;;;13.46;78.24
33953;BME280;20231;42.710;23.280;2022-12-11T01:02:49;92898.19;;;13.64;78.16
33953;BME280;20231;42.710;23.280;2022-12-11T01:05:15;92899.53;;;13.74;78.10
33953;BME280;20231;42.710;23.280;2022-12-11T01:07:41;92832.06;;;13.34;78.63
33953;BME280;20231;42.710;23.280;2022-12-11T01:10:09;92867.06;;;13.43;77.96
33953;BME280;20231;42.710;23.280;2022-12-11T01:13:04;92891.09;;;13.50;78.10
33953;BME280;20231;42.710;23.280;2022-12-11T01:15:33;92927.06;;;13.85;77.57
33953;BME280;20231;42.710;23.280;2022-12-11T01:17:59;92873.56;;;13.79;77.26
33953;BME280;20231;42.710;23.280;2022-12-11T01:20:25;92856.50;;;13.61;77.70
33953;BME280;20231;42.710;23.280;2022-12-11T01:22:56;92925.72;;;13.75;78.43
33953;BME280;20231;42.710;23.280;2022-12-11T01:25:22;92905.03;;;13.65;78.64
33953;BME280;20231;42.710;23.280;2022-12-11T01:27:52;92910.38;;;13.84;78.20
33953;BME280;20231;42.710;23.280;2022-12-11T01:30:19;92865.81;;;13.71;78.16
33953;BME280;20231;42.710;23.280;2022-12-11T01:32:45;92877.25;;;13.94;78.57
33953;BME280;20231;42.710;23.280;2022-12-11T01:35:11;92843.28;;;13.80;78.46
33953;BME280;20231;42.710;23.280;2022-12-11T01:37:37;92826.31;;;13.47;78.77
33953;BME280;20231;42.710;23.280;2022-12-11T01:40:04;92876.47;;;13.74;78.78
33953;BME280;20231;42.710;23.280;2022-12-11T01:42:30;92859.72;;;13.70;78.65
33953;BME280;20231;42.710;23.280;2022-12-11T01:45:26;92862.34;;;13.86;78.70
33953;BME280;20231;42.710;23.280;2022-12-11T01:47:55;92899.22;;;13.75;78.51
33953;BME280;20231;42.710;23.280;2022-12-11T01:50:22;92832.88;;;13.53;77.93
33953;BME280;20231;42.710;23.280;2022-12-11T01:52:48;92893.91;;;13.75;76.96
33953;BME280;20231;42.710;23.280;2022-12-11T01:55:14;92862.94;;;13.79;76.59
33953;BME280;20231;42.710;23.280;2022-12-11T01:57:43;92847.53;;;13.85;76.87
33953;BME280;20231;42.710;23.280;2022-12-11T02:00:10;92872.38;;;13.96;76.48
33953;BME280;20231;42.710;23.280;2022-12-11T02:02:36;92883.88;;;14.03;76.07
33953;BME280;20231;42.710;23.280;2022-12-11T02:05:04;92856.69;;;14.06;75.19
33953;BME280;20231;42.710;23.280;2022-12-11T02:07:36;92860.19;;;14.10;73.96
33953;BME280;20231;42.710;23.280;2022-12-11T02:10:03;92851.19;;;14.15;71.98
33953;BME280;20231;42.710;23.280;2022-12-11T02:12:47;92843.31;;;14.18;70.98
33953;BME280;20231;42.710;23.280;2022-12-11T02:15:26;92852.56;;;14.27;70.64
33953;BME280;20231;42.710;23.280;2022-12-11T02:20:45;92823.03;;;14.29;70.02
33953;BME280;20231;42.710;23.280;2022-12-11T02:28:49;92805.91;;;14.45;69.39
33953;BME280;20231;42.710;23.280;2022-12-11T02:36:23;92785.03;;;14.44;69.90
33953;BME280;20231;42.710;23.280;2022-12-11T02:38:50;92802.66;;;14.78;71.05
33953;BME280;20231;42.710;23.280;2022-12-11T02:41:20;92803.31;;;14.71;71.26
33953;BME280;20231;42.710;23.280;2022-12-11T02:43:47;92783.63;;;14.72;71.31
33953;BME280;20231;42.710;23.280;2022-12-11T02:46:17;92774.69;;;14.61;71.57
33953;BME280;20231;42.710;23.280;2022-12-11T02:48:45;92806.03;;;14.75;71.27
33953;BME280;20231;42.710;23.280;2022-12-11T02:51:13;92818.44;;;14.93;70.78
33953;BME280;20231;42.710;23.280;2022-12-11T02:53:41;92791.16;;;14.70;70.27
33953;BME280;20231;42.710;23.280;2022-12-11T02:56:19;92851.34;;;14.89;69.20
33953;BME280;20231;42.710;23.280;2022-12-11T02:58:51;92793.81;;;14.70;68.00
33953;BME280;20231;42.710;23.280;2022-12-11T03:01:18;92799.59;;;14.76;67.12
33953;BME280;20231;42.710;23.280;2022-12-11T03:03:44;92798.56;;;14.84;67.37
33953;BME280;20231;42.710;23.280;2022-12-11T03:06:12;92818.41;;;15.15;66.67
33953;BME280;20231;42.710;23.280;2022-12-11T03:08:39;92799.41;;;15.13;66.48
33953;BME280;20231;42.710;23.280;2022-12-11T03:11:09;92797.47;;;15.10;67.12
33953;BME280;20231;42.710;23.280;2022-12-11T03:13:35;92812.28;;;15.11;67.31
33953;BME280;20231;42.710;23.280;2022-12-11T03:16:24;92806.28;;;14.92;67.41
33953;BME280;20231;42.710;23.280;2022-12-11T03:21:44;92800.97;;;15.18;68.80
33953;BME280;20231;42.710;23.280;2022-12-11T03:27:02;92784.69;;;14.94;68.48
33953;BME280;20231;42.710;23.280;2022-12-11T03:29:40;92810.13;;;15.20;68.23
33953;BME280;20231;42.710;23.280;2022-12-11T03:32:18;92802.72;;;15.29;68.13
33953;BME280;20231;42.710;23.280;2022-12-11T03:35:07;92815.56;;;15.27;68.19
33953;BME280;20231;42.710;23.280;2022-12-11T03:37:36;92805.19;;;15.19;68.25
33953;BME280;20231;42.710;23.280;2022-12-11T03:40:11;92861.09;;;15.26;67.71
33953;BME280;20231;42.710;23.280;2022-12-11T03:42:39;92817.97;;;15.13;68.11
33953;BME280;20231;42.710;23.280;2022-12-11T03:45:06;92837.13;;;15.22;68.04
33953;BME280;20231;42.710;23.280;2022-12-11T03:47:33;92846.94;;;15.18;67.84
33953;BME280;20231;42.710;23.280;2022-12-11T03:50:00;92859.78;;;15.39;66.45
33953;BME280;20231;42.710;23.280;2022-12-11T03:52:28;92844.91;;;15.34;66.46
33953;BME280;20231;42.710;23.280;2022-12-11T03:54:58;92857.06;;;15.35;66.49
33953;BME280;20231;42.710;23.280;2022-12-11T03:57:29;92871.63;;;15.45;66.97
33953;BME280;20231;42.710;23.280;2022-12-11T03:59:56;92869.03;;;15.48;67.82
33953;BME280;20231;42.710;23.280;2022-12-11T04:02:21;92879.09;;;15.36;68.13
33953;BME280;20231;42.710;23.280;2022-12-11T04:04:47;92879.59;;;15.45;68.23
33953;BME280;20231;42.710;23.280;2022-12-11T04:07:12;92888.00;;;15.47;66.54
33953;BME280;20231;42.710;23.280;2022-12-11T04:09:38;92865.53;;;15.18;66.92
33953;BME280;20231;42.710;23.280;2022-12-11T04:12:03;92905.31;;;15.37;67.30
33953;BME280;20231;42.710;23.280;2022-12-11T04:14:29;92928.13;;;15.42;67.36
33953;BME280;20231;42.710;23.280;2022-12-11T04:17:13;92899.22;;;15.37;67.56
33953;BME280;20231;42.710;23.280;2022-12-11T04:19:58;92950.81;;;15.36;68.43
33953;BME280;20231;42.710;23.280;2022-12-11T04:22:42;92908.06;;;15.22;68.40
33953;BME280;20231;42.710;23.280;2022-12-11T04:25:26;92941.56;;;15.26;69.23
33953;BME280;20231;42.710;23.280;2022-12-11T04:27:51;92937.34;;;15.03;67.71
33953;BME280;20231;42.710;23.280;2022-12-11T04:30:22;92950.03;;;15.13;68.12
33953;BME280;20231;42.710;23.280;2022-12-11T04:32:48;92939.22;;;15.02;69.50
33953;BME280;20231;42.710;23.280;2022-12-11T04:35:14;92959.41;;;15.07;68.62
33953;BME280;20231;42.710;23.280;2022-12-11T04:37:39;92936.88;;;14.98;69.88
33953;BME280;20231;42.710;23.280;2022-12-11T04:40:09;92937.47;;;14.88;70.47
33953;BME280;20231;42.710;23.280;2022-12-11T04:42:35;92961.16;;;15.18;70.39
33953;BME280;20231;42.710;23.280;2022-12-11T04:45:01;92929.13;;;14.89;68.56
33953;BME280;20231;42.710;23.280;2022-12-11T04:47:26;92964.34;;;15.27;65.16
33953;BME280;20231;42.710;23.280;2022-12-11T04:49:52;92963.44;;;15.20;66.02
33953;BME280;20231;42.710;23.280;2022-12-11T04:52:17;92963.84;;;15.41;63.63
33953;BME280;20231;42.710;23.280;2022-12-11T04:54:43;92971.03;;;15.40;62.07
33953;BME280;20231;42.710;23.280;2022-12-11T04:57:08;92997.34;;;15.49;62.80
33953;BME280;20231;42.710;23.280;2022-12-11T04:59:34;92966.75;;;15.58;61.70
33953;BME280;20231;42.710;23.280;2022-12-11T05:01:59;92937.47;;;15.32;62.84
33953;BME280;20231;42.710;23.280;2022-12-11T05:04:29;92981.63;;;15.63;62.97
33953;BME280;20231;42.710;23.280;2022-12-11T05:06:54;92957.13;;;15.50;61.07
33953;BME280;20231;42.710;23.280;2022-12-11T05:09:19;92950.84;;;15.62;61.17
33953;BME280;20231;42.710;23.280;2022-12-11T05:11:45;92924.91;;;15.29;61.71
33953;BME280;20231;42.710;23.280;2022-12-11T05:14:11;92939.72;;;15.53;61.52
33953;BME280;20231;42.710;23.280;2022-12-11T05:16:36;92958.72;;;15.55;62.00
33953;BME280;20231;42.710;23.280;2022-12-11T05:19:01;92924.56;;;15.31;63.52
33953;BME280;20231;42.710;23.280;2022-12-11T05:21:27;92928.63;;;15.25;64.76
33953;BME280;20231;42.710;23.280;2022-12-11T05:23:52;92917.25;;;15.24;65.45
33953;BME280;20231;42.710;23.280;2022-12-11T05:26:19;92941.72;;;15.37;65.60
33953;BME280;20231;42.710;23.280;2022-12-11T05:28:45;92950.25;;;15.46;65.87
33953;BME280;20231;42.710;23.280;2022-12-11T05:31:16;92947.63;;;15.49;65.67
33953;BME280;20231;42.710;23.280;2022-12-11T05:33:43;92949.50;;;15.49;65.98
33953;BME280;20231;42.710;23.280;2022-12-11T05:36:15;92966.44;;;15.37;66.18
33953;BME280;20231;42.710;23.280;2022-12-11T05:38:41;92956.69;;;15.45;64.79
33953;BME280;20231;42.710;23.280;2022-12-11T05:41:07;92963.22;;;15.51;63.83
33953;BME280;20231;42.710;23.280;2022-12-11T05:43:34;92962.28;;;15.40;65.06
33953;BME280;20231;42.710;23.280;2022-12-11T05:46:09;92932.53;;;15.31;65.49
33953;BME280;20231;42.710;23.280;2022-12-11T05:48:36;92985.31;;;15.55;70.94
33953;BME280;20231;42.710;23.280;2022-12-11T05:51:02;92975.63;;;15.66;72.46
33953;BME280;20231;42.710;23.280;2022-12-11T05:53:29;92952.72;;;15.58;69.06
33953;BME280;20231;42.710;23.280;2022-12-11T05:55:59;92931.69;;;15.49;69.25
33953;BME280;20231;42.710;23.280;2022-12-11T05:58:25;92944.31;;;15.56;68.13
33953;BME280;20231;42.710;23.280;2022-12-11T06:00:50;92936.31;;;15.30;68.72
33953;BME280;20231;42.710;23.280;2022-12-11T06:03:16;92927.75;;;15.40;68.56
33953;BME280;20231;42.710;23.280;2022-12-11T06:05:41;92946.78;;;15.45;68.98
33953;BME280;20231;42.710;23.280;2022-12-11T06:08:07;92937.72;;;15.24;68.92
33953;BME280;20231;42.710;23.280;2022-12-11T06:10:33;92922.16;;;15.22;68.91
33953;BME280;20231;42.710;23.280;2022-12-11T06:12:59;92882.41;;;15.07;70.68
33953;BME280;20231;42.710;23.280;2022-12-11T06:15:24;92948.66;;;15.41;68.37
33953;BME280;20231;42.710;23.280;2022-12-11T06:17:50;92958.97;;;15.46;68.61
33953;BME280;20231;42.710;23.280;2022-12-11T06:20:16;92958.53;;;15.41;69.40
33953;BME280;20231;42.710;23.280;2022-12-11T06:22:41;92971.56;;;15.49;71.22
33953;BME280;20231;42.710;23.280;2022-12-11T06:25:07;92943.88;;;15.28;69.24
33953;BME280;20231;42.710;23.280;2022-12-11T06:27:33;92964.75;;;15.52;69.75
33953;BME280;20231;42.710;23.280;2022-12-11T06:29:59;92966.56;;;15.48;69.00
33953;BME280;20231;42.710;23.280;2022-12-11T06:32:24;92981.28;;;15.42;69.10
33953;BME280;20231;42.710;23.280;2022-12-11T06:34:51;92953.91;;;15.38;70.10
33953;BME280;20231;42.710;23.280;2022-12-11T06:37:16;92955.44;;;15.39;69.43
33953;BME280;20231;42.710;23.280;2022-12-11T06:39:41;92966.94;;;15.46;64.39
33953;BME280;20231;42.710;23.280;2022-12-11T06:42:07;92926.16;;;15.35;63.97
33953;BME280;20231;42.710;23.280;2022-12-11T06:44:32;92936.47;;;15.18;65.62
33953;BME280;20231;42.710;23.280;2022-12-11T06:46:58;92969.06;;;15.15;67.83
33953;BME280;20231;42.710;23.280;2022-12-11T06:49:23;92993.88;;;15.22;69.85
33953;BME280;20231;42.710;23.280;2022-12-11T06:51:48;92972.94;;;15.40;67.08
33953;BME280;20231;42.710;23.280;2022-12-11T06:54:14;92959.63;;;15.40;67.00
33953;BME280;20231;42.710;23.280;2022-12-11T06:56:39;92938.78;;;15.42;66.46
33953;BME280;20231;42.710;23.280;2022-12-11T06:59:05;93004.75;;;15.59;67.11
33953;BME280;20231;42.710;23.280;2022-12-11T07:01:31;92957.50;;;15.49;65.22
33953;BME280;20231;42.710;23.280;2022-12-11T07:03:58;92992.09;;;15.52;65.91
33953;BME280;20231;42.710;23.280;2022-12-11T07:06:25;92989.06;;;15.54;63.72
33953;BME280;20231;42.710;23.280;2022-12-11T07:08:51;92992.53;;;15.54;64.94
33953;BME280;20231;42.710;23.280;2022-12-11T07:11:18;92997.16;;;15.61;64.47
33953;BME280;20231;42.710;23.280;2022-12-11T07:13:43;92990.22;;;15.53;64.86
33953;BME280;20231;42.710;23.280;2022-12-11T07:16:10;93008.97;;;15.63;65.91
33953;BME280;20231;42.710;23.280;2022-12-11T07:18:37;93004.75;;;15.59;65.56
33953;BME280;20231;42.710;23.280;2022-12-11T07:21:05;93017.97;;;15.55;65.79
33953;BME280;20231;42.710;23.280;2022-12-11T07:23:31;93019.56;;;15.60;67.06
33953;BME280;20231;42.710;23.280;2022-12-11T07:25:58;93016.94;;;15.63;67.55
33953;BME280;20231;42.710;23.280;2022-12-11T07:28:23;93006.75;;;15.43;67.85
33953;BME280;20231;42.710;23.280;2022-12-11T07:30:49;93014.34;;;15.44;68.84
33953;BME280;20231;42.710;23.280;2022-12-11T07:33:14;93014.41;;;15.48;69.31
33953;BME280;20231;42.710;23.280;2022-12-11T07:35:40;93005.69;;;15.47;69.67
33953;BME280;20231;42.710;23.280;2022-12-11T07:38:07;93004.25;;;15.31;69.94
33953;BME280;20231;42.710;23.280;2022-12-11T07:40:32;93011.47;;;15.30;69.90
33953;BME280;20231;42.710;23.280;2022-12-11T07:42:58;93016.22;;;15.21;70.00
33953;BME280;20231;42.710;23.280;2022-12-11T07:45:23;93011.13;;;15.13;70.14
33953;BME280;20231;42.710;23.280;2022-12-11T07:47:50;93030.97;;;15.19;68.94
33953;BME280;20231;42.710;23.280;2022-12-11T07:50:16;93003.09;;;15.28;63.59
33953;BME280;20231;42.710;23.280;2022-12-11T07:52:42;93021.03;;;15.35;62.75
33953;BME280;20231;42.710;23.280;2022-12-11T07:55:08;93036.09;;;15.50;68.24
33953;BME280;20231;42.710;23.280;2022-12-11T07:57:33;93015.97;;;15.49;61.99
33953;BME280;20231;42.710;23.280;2022-12-11T07:59:59;92998.47;;;15.48;60.71
33953;BME280;20231;42.710;23.280;2022-12-11T08:02:24;93032.56;;;15.65;62.46
33953;BME280;20231;42.710;23.280;2022-12-11T08:04:50;93021.03;;;15.57;65.83
33953;BME280;20231;42.710;23.280;2022-12-11T08:07:15;93039.47;;;15.69;66.44
33953;BME280;20231;42.710;23.280;2022-12-11T08:09:40;93052.47;;;15.74;68.04
33953;BME280;20231;42.710;23.280;2022-12-11T08:12:06;93058.84;;;15.70;68.02
33953;BME280;20231;42.710;23.280;2022-12-11T08:14:31;93045.63;;;15.73;68.83
33953;BME280;20231;42.710;23.280;2022-12-11T08:16:57;93042.00;;;15.84;65.97
33953;BME280;20231;42.710;23.280;2022-12-11T08:19:24;93056.72;;;15.78;67.84
33953;BME280;20231;42.710;23.280;2022-12-11T08:21:49;93062.56;;;15.87;68.23
33953;BME280;20231;42.710;23.280;2022-12-11T08:24:15;93060.41;;;15.71;68.53
33953;BME280;20231;42.710;23.280;2022-12-11T08:26:44;93043.13;;;15.83;65.13
33953;BME280;20231;42.710;23.280;2022-12-11T08:29:09;93011.75;;;15.70;62.64
33953;BME280;20231;42.710;23.280;2022-12-11T08:31:35;93050.19;;;15.98;61.49
33953;BME280;20231;42.710;23.280;2022-12-11T08:34:00;93048.97;;;15.92;62.84
33953;BME280;20231;42.710;23.280;2022-12-11T08:36:26;93060.47;;;16.00;62.46
33953;BME280;20231;42.710;23.280;2022-12-11T08:38:53;93052.50;;;16.00;64.29
33953;BME280;20231;42.710;23.280;2022-12-11T08:43:46;93043.63;;;15.92;65.42
33953;BME280;20231;42.710;23.280;2022-12-11T08:46:12;93035.38;;;15.75;66.91
33953;BME280;20231;42.710;23.280;2022-12-11T08:48:40;93072.69;;;16.04;67.66
33953;BME280;20231;42.710;23.280;2022-12-11T08:51:09;93044.31;;;15.86;69.23
33953;BME280;20231;42.710;23.280;2022-12-11T08:53:35;93054.66;;;15.91;70.52
33953;BME280;20231;42.710;23.280;2022-12-11T08:56:02;93038.00;;;15.72;71.63
33953;BME280;20231;42.710;23.280;2022-12-11T08:58:28;93021.03;;;15.79;72.44
33953;BME280;20231;42.710;23.280;2022-12-11T09:00:54;93022.72;;;15.91;79.11
33953;BME280;20231;42.710;23.280;2022-12-11T09:03:21;93013.16;;;15.86;77.04
33953;BME280;20231;42.710;23.280;2022-12-11T09:05:46;93004.16;;;15.94;73.22
33953;BME280;20231;42.710;23.280;2022-12-11T09:08:12;92977.59;;;15.72;71.86
33953;BME280;20231;42.710;23.280;2022-12-11T09:10:37;93010.97;;;15.92;73.33
33953;BME280;20231;42.710;23.280;2022-12-11T09:13:03;92982.75;;;15.62;72.18
33953;BME280;20231;42.710;23.280;2022-12-11T09:15:28;93010.63;;;15.71;72.08
33953;BME280;20231;42.710;23.280;2022-12-11T09:17:54;93006.28;;;15.85;68.41
33953;BME280;20231;42.710;23.280;2022-12-11T09:20:19;92985.69;;;15.79;67.80
33953;BME280;20231;42.710;23.280;2022-12-11T09:22:45;93023.00;;;16.08;69.10
33953;BME280;20231;42.710;23.280;2022-12-11T09:25:10;92990.25;;;16.04;68.97
33953;BME280;20231;42.710;23.280;2022-12-11T09:27:36;93028.13;;;16.20;66.97
33953;BME280;20231;42.710;23.280;2022-12-11T09:30:01;92982.31;;;16.08;64.99
33953;BME280;20231;42.710;23.280;2022-12-11T09:32:27;92986.16;;;16.10;64.41
33953;BME280;20231;42.710;23.280;2022-12-11T09:34:52;93008.47;;;16.28;65.10
33953;BME280;20231;42.710;23.280;2022-12-11T09:37:18;93010.16;;;16.40;65.97
33953;BME280;20231;42.710;23.280;2022-12-11T09:39:43;92985.78;;;16.38;65.21
33953;BME280;20231;42.710;23.280;2022-12-11T09:42:34;92992.38;;;16.47;64.14
33953;BME280;20231;42.710;23.280;2022-12-11T09:45:12;92961.19;;;16.18;64.91
33953;BME280;20231;42.710;23.280;2022-12-11T09:47:41;92990.78;;;16.39;65.80
33953;BME280;20231;42.710;23.280;2022-12-11T09:55:37;93015.19;;;16.48;65.68
33953;BME280;20231;42.710;23.280;2022-12-11T10:01:21;92999.84;;;16.64;65.46
33953;BME280;20231;42.710;23.280;2022-12-11T10:07:05;93016.66;;;16.71;64.58
33953;BME280;20231;42.710;23.280;2022-12-11T10:12:43;92992.72;;;16.75;66.10
33953;BME280;20231;42.710;23.280;2022-12-11T10:15:56;93010.38;;;16.86;65.70
33953;BME280;20231;42.710;23.280;2022-12-11T10:18:26;93051.78;;;16.84;64.77
33953;BME280;20231;42.710;23.280;2022-12-11T10:20:53;92990.09;;;16.78;63.60
33953;BME280;20231;42.710;23.280;2022-12-11T10:23:27;93001.50;;;16.79;64.71
33953;BME280;20231;42.710;23.280;2022-12-11T10:26:18;93000.84;;;16.85;66.83
33953;BME280;20231;42.710;23.280;2022-12-11T10:28:44;93044.09;;;16.75;64.67
33953;BME280;20231;42.710;23.280;2022-12-11T10:31:18;93028.88;;;16.76;64.93
33953;BME280;20231;42.710;23.280;2022-12-11T10:36:19;93007.09;;;16.67;65.80
33953;BME280;20231;42.710;23.280;2022-12-11T10:38:46;93010.53;;;16.67;65.96
33953;BME280;20231;42.710;23.280;2022-12-11T10:41:39;93010.13;;;16.65;66.56
33953;BME280;20231;42.710;23.280;2022-12-11T10:47:10;92989.28;;;16.74;67.04
33953;BME280;20231;42.710;23.280;2022-12-11T10:49:35;92990.47;;;16.77;66.72
33953;BME280;20231;42.710;23.280;2022-12-11T10:52:09;92983.69;;;16.83;65.76
33953;BME280;20231;42.710;23.280;2022-12-11T10:54:40;92984.16;;;16.92;65.90
33953;BME280;20231;42.710;23.280;2022-12-11T10:57:09;92962.63;;;16.71;65.04
33953;BME280;20231;42.710;23.280;2022-12-11T10:59:46;92956.25;;;16.79;65.13
33953;BME280;20231;42.710;23.280;2022-12-11T11:02:35;92972.03;;;16.98;64.47
33953;BME280;20231;42.710;23.280;2022-12-11T11:05:12;92988.13;;;17.05;63.74
33953;BME280;20231;42.710;23.280;2022-12-11T11:07:38;92973.97;;;16.97;64.30
33953;BME280;20231;42.710;23.280;2022-12-11T11:12:40;92973.84;;;16.87;64.30
33953;BME280;20231;42.710;23.280;2022-12-11T11:17:48;92958.81;;;16.72;64.71
33953;BME280;20231;42.710;23.280;2022-12-11T11:20:17;92974.94;;;16.82;64.78
33953;BME280;20231;42.710;23.280;2022-12-11T11:22:51;92960.88;;;16.85;64.93
33953;BME280;20231;42.710;23.280;2022-12-11T11:25:24;92954.28;;;16.72;65.47
33953;BME280;20231;42.710;23.280;2022-12-11T11:27:57;92959.72;;;16.83;65.86
33953;BME280;20231;42.710;23.280;2022-12-11T11:30:25;92961.69;;;16.89;66.11
33953;BME280;20231;42.710;23.280;2022-12-11T11:32:57;92962.69;;;16.78;65.09
33953;BME280;20231;42.710;23.280;2022-12-11T11:35:28;92962.72;;;16.81;64.55
33953;BME280;20231;42.710;23.280;2022-12-11T11:38:01;92949.91;;;16.90;64.08
33953;BME280;20231;42.710;23.280;2022-12-11T11:40:33;92950.13;;;16.75;64.60
33953;BME280;20231;42.710;23.280;2022-12-11T11:43:18;92959.47;;;16.95;64.11
33953;BME280;20231;42.710;23.280;2022-12-11T11:46:03;92938.09;;;16.88;64.03
33953;BME280;20231;42.710;23.280;2022-12-11T11:48:42;92944.53;;;16.87;64.11
33953;BME280;20231;42.710;23.280;2022-12-11T11:51:25;92942.63;;;16.87;64.09
33953;BME280;20231;42.710;23.280;2022-12-11T11:53:54;92944.00;;;16.74;64.32
33953;BME280;20231;42.710;23.280;2022-12-11T11:56:28;92944.41;;;16.76;64.67
33953;BME280;20231;42.710;23.280;2022-12-11T12:01:31;92935.38;;;16.84;71.38
33953;BME280;20231;42.710;23.280;2022-12-11T12:03:57;92936.72;;;16.68;66.75
33953;BME280;20231;42.710;23.280;2022-12-11T12:06:43;92955.16;;;16.25;64.51
33953;BME280;20231;42.710;23.280;2022-12-11T12:09:40;92950.97;;;15.69;65.08
33953;BME280;20231;42.710;23.280;2022-12-11T12:17:57;92954.03;;;15.45;64.36
33953;BME280;20231;42.710;23.280;2022-12-11T12:20:38;92959.09;;;15.31;63.33
33953;BME280;20231;42.710;23.280;2022-12-11T12:31:43;92983.94;;;13.72;65.26
33953;BME280;20231;42.710;23.280;2022-12-11T12:39:31;92991.31;;;12.47;68.31
33953;BME280;20231;42.710;23.280;2022-12-11T12:45:04;92997.13;;;11.62;69.85
33953;BME280;20231;42.710;23.280;2022-12-11T12:47:34;93005.25;;;11.21;71.96
33953;BME280;20231;42.710;23.280;2022-12-11T12:50:02;93019.94;;;10.98;71.98
33953;BME280;20231;42.710;23.280;2022-12-11T12:52:31;93023.59;;;11.18;72.71
33953;BME280;20231;42.710;23.280;2022-12-11T12:55:02;92977.88;;;10.69;73.35
33953;BME280;20231;42.710;23.280;2022-12-11T12:57:49;93028.59;;;10.87;73.49
33953;BME280;20231;42.710;23.280;2022-12-11T13:02:57;93043.00;;;10.37;73.92
33953;BME280;20231;42.710;23.280;2022-12-11T13:05:29;93016.75;;;10.08;75.03
33953;BME280;20231;42.710;23.280;2022-12-11T13:08:02;93036.66;;;9.97;77.00
33953;BME280;20231;42.710;23.280;2022-12-11T13:10:31;93013.28;;;9.67;76.97
33953;BME280;20231;42.710;23.280;2022-12-11T13:12:57;93036.28;;;9.49;78.02
33953;BME280;20231;42.710;23.280;2022-12-11T13:15:40;93059.53;;;9.76;78.31
33953;BME280;20231;42.710;23.280;2022-12-11T13:18:47;93064.28;;;9.54;76.85
33953;BME280;20231;42.710;23.280;2022-12-11T13:21:33;93083.69;;;9.78;76.85
33953;BME280;20231;42.710;23.280;2022-12-11T13:26:44;93080.31;;;9.40;76.31
33953;BME280;20231;42.710;23.280;2022-12-11T13:29:32;93101.84;;;9.25;76.93
33953;BME280;20231;42.710;23.280;2022-12-11T13:34:36;93100.91;;;9.30;76.18
33953;BME280;20231;42.710;23.280;2022-12-11T13:37:04;93131.28;;;9.19;77.41
33953;BME280;20231;42.710;23.280;2022-12-11T13:39:39;93130.19;;;9.28;75.97
33953;BME280;20231;42.710;23.280;2022-12-11T13:42:07;93147.78;;;9.36;75.89
33953;BME280;20231;42.710;23.280;2022-12-11T13:44:46;93155.78;;;9.57;75.07
33953;BME280;20231;42.710;23.280;2022-12-11T13:47:14;93152.81;;;9.13;75.15
33953;BME280;20231;42.710;23.280;2022-12-11T13:49:43;93148.78;;;9.07;76.33
33953;BME280;20231;42.710;23.280;2022-12-11T13:52:24;93196.56;;;9.25;75.26
33953;BME280;20231;42.710;23.280;2022-12-11T13:54:54;93187.25;;;9.45;73.85
33953;BME280;20231;42.710;23.280;2022-12-11T13:57:23;93146.03;;;8.86;75.60
33953;BME280;20231;42.710;23.280;2022-12-11T13:59:56;93208.19;;;9.41;74.54
33953;BME280;20231;42.710;23.280;2022-12-11T14:02:32;93198.91;;;9.35;73.65
33953;BME280;20231;42.710;23.280;2022-12-11T14:05:01;93194.88;;;9.13;74.08
33953;BME280;20231;42.710;23.280;2022-12-11T14:07:29;93202.91;;;9.24;74.01
33953;BME280;20231;42.710;23.280;2022-12-11T14:10:00;93195.19;;;9.20;73.39
33953;BME280;20231;42.710;23.280;2022-12-11T14:12:27;93195.06;;;8.99;73.70
33953;BME280;20231;42.710;23.280;2022-12-11T14:14:56;93183.91;;;8.94;74.74
33953;BME280;20231;42.710;23.280;2022-12-11T14:17:29;93190.84;;;9.15;73.98
33953;BME280;20231;42.710;23.280;2022-12-11T14:19:57;93215.47;;;9.19;73.97
33953;BME280;20231;42.710;23.280;2022-12-11T14:22:28;93214.88;;;9.05;73.96